sensor_id;sensor_type;location;lat;lon;timestamp;P1;durP1;ratioP1;P2;durP2;ratioP2
38312;SDS011;24114;52.260;6.714;2023-02-28T00:01:23;4.63;;;4.13;;
38312;SDS011;24114;52.260;6.714;2023-02-28T00:03:51;4.75;;;4.28;;
38312;SDS011;24114;52.260;6.714;2023-02-28T00:06:19;5.78;;;4.70;;
38312;SDS011;24114;52.260;6.714;2023-02-28T00:08:47;5.00;;;4.50;;
38312;SDS011;24114;52.260;6.714;2023-02-28T00:11:16;5.10;;;4.57;;
38312;SDS011;24114;52.260;6.714;2023-02-28T00:13:44;5.50;;;4.40;;
38312;SDS011;24114;52.260;6.714;2023-02-28T00:16:14;5.95;;;4.60;;
38312;SDS011;24114;52.260;6.714;2023-02-28T00:18:42;8.38;;;4.20;;
38312;SDS011;24114;52.260;6.714;2023-02-28T00:21:10;5.43;;;4.30;;
38312;SDS011;24114;52.260;6.714;2023-02-28T00:23:38;5.75;;;4.68;;
38312;SDS011;24114;52.260;6.714;2023-02-28T00:26:05;5.68;;;4.40;;
38312;SDS011;24114;52.260;6.714;2023-02-28T00:28:35;8.05;;;4.47;;
38312;SDS011;24114;52.260;6.714;2023-02-28T00:31:02;6.05;;;4.03;;
38312;SDS011;24114;52.260;6.714;2023-02-28T00:33:30;5.75;;;4.80;;
38312;SDS011;24114;52.260;6.714;2023-02-28T00:36:02;7.88;;;4.63;;
38312;SDS011;24114;52.260;6.714;2023-02-28T00:38:31;5.65;;;4.55;;
38312;SDS011;24114;52.260;6.714;2023-02-28T00:40:59;6.35;;;4.50;;
38312;SDS011;24114;52.260;6.714;2023-02-28T00:43:31;4.82;;;4.10;;
38312;SDS011;24114;52.260;6.714;2023-02-28T00:46:01;5.85;;;4.57;;
38312;SDS011;24114;52.260;6.714;2023-02-28T00:48:29;6.22;;;4.55;;
38312;SDS011;24114;52.260;6.714;2023-02-28T00:50:57;5.00;;;4.30;;
38312;SDS011;24114;52.260;6.714;2023-02-28T00:53:25;6.45;;;4.55;;
38312;SDS011;24114;52.260;6.714;2023-02-28T00:55:53;7.20;;;5.20;;
38312;SDS011;24114;52.260;6.714;2023-02-28T00:58:20;6.35;;;4.40;;
38312;SDS011;24114;52.260;6.714;2023-02-28T01:00:48;6.68;;;4.40;;
38312;SDS011;24114;52.260;6.714;2023-02-28T01:03:18;5.38;;;4.20;;
38312;SDS011;24114;52.260;6.714;2023-02-28T01:05:46;6.47;;;4.30;;
38312;SDS011;24114;52.260;6.714;2023-02-28T01:08:14;5.65;;;4.43;;
38312;SDS011;24114;52.260;6.714;2023-02-28T01:10:42;5.45;;;3.97;;
38312;SDS011;24114;52.260;6.714;2023-02-28T01:13:10;7.18;;;4.43;;
38312;SDS011;24114;52.260;6.714;2023-02-28T01:15:39;5.57;;;4.43;;
38312;SDS011;24114;52.260;6.714;2023-02-28T01:18:09;5.68;;;4.40;;
38312;SDS011;24114;52.260;6.714;2023-02-28T01:20:38;7.65;;;4.72;;
38312;SDS011;24114;52.260;6.714;2023-02-28T01:23:06;10.25;;;4.88;;
38312;SDS011;24114;52.260;6.714;2023-02-28T01:25:34;8.95;;;5.07;;
38312;SDS011;24114;52.260;6.714;2023-02-28T01:28:02;4.97;;;4.47;;
38312;SDS011;24114;52.260;6.714;2023-02-28T01:30:30;5.20;;;4.70;;
38312;SDS011;24114;52.260;6.714;2023-02-28T01:32:58;4.93;;;4.10;;
38312;SDS011;24114;52.260;6.714;2023-02-28T01:35:25;7.25;;;4.97;;
38312;SDS011;24114;52.260;6.714;2023-02-28T01:37:55;9.20;;;4.60;;
38312;SDS011;24114;52.260;6.714;2023-02-28T01:40:34;6.35;;;4.45;;
38312;SDS011;24114;52.260;6.714;2023-02-28T01:43:02;6.20;;;4.70;;
38312;SDS011;24114;52.260;6.714;2023-02-28T01:45:31;7.32;;;5.25;;
38312;SDS011;24114;52.260;6.714;2023-02-28T01:48:00;5.97;;;5.30;;
38312;SDS011;24114;52.260;6.714;2023-02-28T01:50:31;6.93;;;5.10;;
38312;SDS011;24114;52.260;6.714;2023-02-28T01:53:04;7.53;;;5.13;;
38312;SDS011;24114;52.260;6.714;2023-02-28T01:55:33;7.88;;;5.05;;
38312;SDS011;24114;52.260;6.714;2023-02-28T01:58:02;5.57;;;4.88;;
38312;SDS011;24114;52.260;6.714;2023-02-28T02:00:32;7.20;;;5.35;;
38312;SDS011;24114;52.260;6.714;2023-02-28T02:03:01;8.38;;;5.90;;
38312;SDS011;24114;52.260;6.714;2023-02-28T02:05:32;7.60;;;5.15;;
38312;SDS011;24114;52.260;6.714;2023-02-28T02:08:01;7.28;;;5.10;;
38312;SDS011;24114;52.260;6.714;2023-02-28T02:10:33;7.20;;;5.80;;
38312;SDS011;24114;52.260;6.714;2023-02-28T02:13:11;8.45;;;4.80;;
38312;SDS011;24114;52.260;6.714;2023-02-28T02:15:48;8.05;;;5.78;;
38312;SDS011;24114;52.260;6.714;2023-02-28T02:18:23;7.00;;;5.43;;
38312;SDS011;24114;52.260;6.714;2023-02-28T02:36:05;7.45;;;5.65;;
38312;SDS011;24114;52.260;6.714;2023-02-28T02:38:34;6.43;;;5.30;;
38312;SDS011;24114;52.260;6.714;2023-02-28T02:41:08;5.85;;;4.97;;
38312;SDS011;24114;52.260;6.714;2023-02-28T02:43:40;7.20;;;5.22;;
38312;SDS011;24114;52.260;6.714;2023-02-28T02:46:12;8.23;;;5.53;;
38312;SDS011;24114;52.260;6.714;2023-02-28T02:48:42;9.82;;;6.45;;
38312;SDS011;24114;52.260;6.714;2023-02-28T02:51:13;7.72;;;5.60;;
38312;SDS011;24114;52.260;6.714;2023-02-28T02:53:44;8.88;;;6.90;;
38312;SDS011;24114;52.260;6.714;2023-02-28T02:56:15;8.77;;;7.10;;
38312;SDS011;24114;52.260;6.714;2023-02-28T02:58:47;10.65;;;7.80;;
38312;SDS011;24114;52.260;6.714;2023-02-28T03:01:18;7.65;;;6.85;;
38312;SDS011;24114;52.260;6.714;2023-02-28T03:03:55;9.95;;;6.95;;
38312;SDS011;24114;52.260;6.714;2023-02-28T03:06:26;9.27;;;6.72;;
38312;SDS011;24114;52.260;6.714;2023-02-28T03:08:54;8.40;;;6.43;;
38312;SDS011;24114;52.260;6.714;2023-02-28T03:11:22;7.47;;;5.78;;
38312;SDS011;24114;52.260;6.714;2023-02-28T03:14:03;7.85;;;6.10;;
38312;SDS011;24114;52.260;6.714;2023-02-28T03:16:52;6.90;;;5.50;;
38312;SDS011;24114;52.260;6.714;2023-02-28T03:19:39;6.40;;;5.65;;
38312;SDS011;24114;52.260;6.714;2023-02-28T03:22:22;9.32;;;5.63;;
38312;SDS011;24114;52.260;6.714;2023-02-28T03:24:56;7.93;;;5.25;;
38312;SDS011;24114;52.260;6.714;2023-02-28T03:27:25;8.13;;;5.22;;
38312;SDS011;24114;52.260;6.714;2023-02-28T03:29:57;7.68;;;5.10;;
38312;SDS011;24114;52.260;6.714;2023-02-28T03:32:28;7.78;;;5.65;;
38312;SDS011;24114;52.260;6.714;2023-02-28T03:34:59;6.80;;;5.47;;
38312;SDS011;24114;52.260;6.714;2023-02-28T03:37:33;7.22;;;5.93;;
38312;SDS011;24114;52.260;6.714;2023-02-28T03:40:04;8.05;;;5.45;;
38312;SDS011;24114;52.260;6.714;2023-02-28T03:42:35;7.45;;;5.47;;
38312;SDS011;24114;52.260;6.714;2023-02-28T03:45:05;11.10;;;6.00;;
38312;SDS011;24114;52.260;6.714;2023-02-28T03:47:39;6.82;;;5.45;;
38312;SDS011;24114;52.260;6.714;2023-02-28T03:50:10;7.25;;;6.03;;
38312;SDS011;24114;52.260;6.714;2023-02-28T03:52:42;8.52;;;5.93;;
38312;SDS011;24114;52.260;6.714;2023-02-28T03:55:12;9.38;;;5.93;;
38312;SDS011;24114;52.260;6.714;2023-02-28T03:57:43;7.40;;;5.93;;
38312;SDS011;24114;52.260;6.714;2023-02-28T04:00:17;9.35;;;6.10;;
38312;SDS011;24114;52.260;6.714;2023-02-28T04:02:46;7.95;;;5.57;;
38312;SDS011;24114;52.260;6.714;2023-02-28T04:05:18;8.27;;;5.65;;
38312;SDS011;24114;52.260;6.714;2023-02-28T04:07:48;5.75;;;5.13;;
38312;SDS011;24114;52.260;6.714;2023-02-28T04:10:18;5.82;;;5.20;;
38312;SDS011;24114;52.260;6.714;2023-02-28T04:12:46;9.88;;;5.70;;
38312;SDS011;24114;52.260;6.714;2023-02-28T04:15:14;9.85;;;5.72;;
38312;SDS011;24114;52.260;6.714;2023-02-28T04:17:42;6.65;;;5.50;;
38312;SDS011;24114;52.260;6.714;2023-02-28T04:20:10;8.13;;;5.53;;
38312;SDS011;24114;52.260;6.714;2023-02-28T04:22:38;6.45;;;5.80;;
38312;SDS011;24114;52.260;6.714;2023-02-28T04:25:08;9.88;;;5.82;;
38312;SDS011;24114;52.260;6.714;2023-02-28T04:27:35;10.95;;;5.70;;
38312;SDS011;24114;52.260;6.714;2023-02-28T04:30:03;7.45;;;5.35;;
38312;SDS011;24114;52.260;6.714;2023-02-28T04:32:32;7.28;;;5.90;;
38312;SDS011;24114;52.260;6.714;2023-02-28T04:35:00;5.72;;;5.13;;
38312;SDS011;24114;52.260;6.714;2023-02-28T04:37:28;5.88;;;5.28;;
38312;SDS011;24114;52.260;6.714;2023-02-28T04:39:56;7.13;;;5.53;;
38312;SDS011;24114;52.260;6.714;2023-02-28T04:42:25;8.75;;;6.32;;
38312;SDS011;24114;52.260;6.714;2023-02-28T04:44:53;6.63;;;5.43;;
38312;SDS011;24114;52.260;6.714;2023-02-28T04:47:21;6.32;;;5.53;;
38312;SDS011;24114;52.260;6.714;2023-02-28T04:49:48;6.65;;;5.90;;
38312;SDS011;24114;52.260;6.714;2023-02-28T04:52:16;6.65;;;5.25;;
38312;SDS011;24114;52.260;6.714;2023-02-28T04:57:11;8.68;;;6.10;;
38312;SDS011;24114;52.260;6.714;2023-02-28T04:59:41;7.72;;;6.00;;
38312;SDS011;24114;52.260;6.714;2023-02-28T05:02:08;9.73;;;6.53;;
38312;SDS011;24114;52.260;6.714;2023-02-28T05:04:36;7.38;;;6.47;;
38312;SDS011;24114;52.260;6.714;2023-02-28T05:07:04;7.85;;;6.30;;
38312;SDS011;24114;52.260;6.714;2023-02-28T05:09:32;8.60;;;6.65;;
38312;SDS011;24114;52.260;6.714;2023-02-28T05:12:00;8.32;;;6.50;;
38312;SDS011;24114;52.260;6.714;2023-02-28T05:14:29;10.23;;;7.03;;
38312;SDS011;24114;52.260;6.714;2023-02-28T05:16:58;8.27;;;6.82;;
38312;SDS011;24114;52.260;6.714;2023-02-28T05:19:26;9.52;;;6.55;;
38312;SDS011;24114;52.260;6.714;2023-02-28T05:21:54;8.82;;;6.50;;
38312;SDS011;24114;52.260;6.714;2023-02-28T05:24:22;7.47;;;6.03;;
38312;SDS011;24114;52.260;6.714;2023-02-28T05:26:50;8.68;;;6.25;;
38312;SDS011;24114;52.260;6.714;2023-02-28T05:29:19;6.75;;;5.90;;
38312;SDS011;24114;52.260;6.714;2023-02-28T05:31:47;8.38;;;6.78;;
38312;SDS011;24114;52.260;6.714;2023-02-28T05:34:16;6.72;;;6.05;;
38312;SDS011;24114;52.260;6.714;2023-02-28T05:36:44;9.48;;;5.78;;
38312;SDS011;24114;52.260;6.714;2023-02-28T05:39:12;6.65;;;5.95;;
38312;SDS011;24114;52.260;6.714;2023-02-28T05:41:40;9.07;;;6.72;;
38312;SDS011;24114;52.260;6.714;2023-02-28T05:44:08;7.20;;;6.30;;
38312;SDS011;24114;52.260;6.714;2023-02-28T05:46:36;6.68;;;6.00;;
38312;SDS011;24114;52.260;6.714;2023-02-28T05:49:04;9.30;;;6.55;;
38312;SDS011;24114;52.260;6.714;2023-02-28T05:51:34;8.75;;;6.07;;
38312;SDS011;24114;52.260;6.714;2023-02-28T05:54:02;8.27;;;6.10;;
38312;SDS011;24114;52.260;6.714;2023-02-28T05:56:30;9.27;;;6.63;;
38312;SDS011;24114;52.260;6.714;2023-02-28T05:59:00;8.98;;;6.38;;
38312;SDS011;24114;52.260;6.714;2023-02-28T06:01:32;8.65;;;6.43;;
38312;SDS011;24114;52.260;6.714;2023-02-28T06:04:01;7.82;;;6.97;;
38312;SDS011;24114;52.260;6.714;2023-02-28T06:06:30;7.65;;;6.70;;
38312;SDS011;24114;52.260;6.714;2023-02-28T06:09:03;8.35;;;6.97;;
38312;SDS011;24114;52.260;6.714;2023-02-28T06:11:32;8.48;;;6.15;;
38312;SDS011;24114;52.260;6.714;2023-02-28T06:14:00;9.15;;;7.05;;
38312;SDS011;24114;52.260;6.714;2023-02-28T06:16:29;9.15;;;7.05;;
38312;SDS011;24114;52.260;6.714;2023-02-28T06:18:58;7.85;;;7.03;;
38312;SDS011;24114;52.260;6.714;2023-02-28T06:21:29;7.68;;;6.80;;
38312;SDS011;24114;52.260;6.714;2023-02-28T06:23:58;10.05;;;7.95;;
38312;SDS011;24114;52.260;6.714;2023-02-28T06:26:27;8.52;;;7.68;;
38312;SDS011;24114;52.260;6.714;2023-02-28T06:28:55;9.88;;;7.93;;
38312;SDS011;24114;52.260;6.714;2023-02-28T06:31:23;7.88;;;7.05;;
38312;SDS011;24114;52.260;6.714;2023-02-28T06:33:52;9.07;;;7.22;;
38312;SDS011;24114;52.260;6.714;2023-02-28T06:36:19;7.60;;;6.90;;
38312;SDS011;24114;52.260;6.714;2023-02-28T06:38:47;10.60;;;8.25;;
38312;SDS011;24114;52.260;6.714;2023-02-28T06:41:21;11.55;;;8.35;;
38312;SDS011;24114;52.260;6.714;2023-02-28T06:43:50;10.38;;;8.20;;
38312;SDS011;24114;52.260;6.714;2023-02-28T06:46:19;11.23;;;7.93;;
38312;SDS011;24114;52.260;6.714;2023-02-28T06:48:46;9.95;;;7.45;;
38312;SDS011;24114;52.260;6.714;2023-02-28T06:51:15;10.82;;;7.32;;
38312;SDS011;24114;52.260;6.714;2023-02-28T06:53:46;9.45;;;7.43;;
38312;SDS011;24114;52.260;6.714;2023-02-28T06:56:14;8.32;;;7.45;;
38312;SDS011;24114;52.260;6.714;2023-02-28T06:58:45;10.27;;;7.35;;
38312;SDS011;24114;52.260;6.714;2023-02-28T07:01:16;8.93;;;7.38;;
38312;SDS011;24114;52.260;6.714;2023-02-28T07:03:44;7.35;;;6.20;;
38312;SDS011;24114;52.260;6.714;2023-02-28T07:06:12;7.88;;;7.07;;
38312;SDS011;24114;52.260;6.714;2023-02-28T07:08:39;8.70;;;6.13;;
38312;SDS011;24114;52.260;6.714;2023-02-28T07:11:07;7.68;;;6.50;;
38312;SDS011;24114;52.260;6.714;2023-02-28T07:13:35;8.45;;;6.68;;
38312;SDS011;24114;52.260;6.714;2023-02-28T07:16:04;6.30;;;5.63;;
38312;SDS011;24114;52.260;6.714;2023-02-28T07:18:35;9.27;;;6.20;;
38312;SDS011;24114;52.260;6.714;2023-02-28T07:21:03;5.43;;;4.93;;
38312;SDS011;24114;52.260;6.714;2023-02-28T07:23:32;5.85;;;5.20;;
38312;SDS011;24114;52.260;6.714;2023-02-28T07:26:00;7.60;;;5.43;;
38312;SDS011;24114;52.260;6.714;2023-02-28T07:28:28;5.38;;;4.40;;
38312;SDS011;24114;52.260;6.714;2023-02-28T07:30:56;6.45;;;4.55;;
38312;SDS011;24114;52.260;6.714;2023-02-28T07:33:23;5.25;;;4.13;;
38312;SDS011;24114;52.260;6.714;2023-02-28T07:35:56;5.85;;;4.15;;
38312;SDS011;24114;52.260;6.714;2023-02-28T07:38:27;6.55;;;4.20;;
38312;SDS011;24114;52.260;6.714;2023-02-28T07:40:55;5.40;;;2.70;;
38312;SDS011;24114;52.260;6.714;2023-02-28T07:43:22;3.72;;;2.42;;
38312;SDS011;24114;52.260;6.714;2023-02-28T07:45:50;4.90;;;2.08;;
38312;SDS011;24114;52.260;6.714;2023-02-28T07:48:18;2.67;;;1.77;;
38312;SDS011;24114;52.260;6.714;2023-02-28T07:50:54;8.45;;;6.25;;
38312;SDS011;24114;52.260;6.714;2023-02-28T07:53:22;2.50;;;1.60;;
38312;SDS011;24114;52.260;6.714;2023-02-28T07:55:50;3.05;;;1.60;;
38312;SDS011;24114;52.260;6.714;2023-02-28T07:58:22;3.22;;;1.45;;
38312;SDS011;24114;52.260;6.714;2023-02-28T08:00:50;2.90;;;1.90;;
38312;SDS011;24114;52.260;6.714;2023-02-28T08:03:18;1.63;;;0.90;;
38312;SDS011;24114;52.260;6.714;2023-02-28T08:05:47;2.38;;;1.13;;
38312;SDS011;24114;52.260;6.714;2023-02-28T08:08:16;12.70;;;8.30;;
38312;SDS011;24114;52.260;6.714;2023-02-28T08:10:44;3.22;;;1.52;;
38312;SDS011;24114;52.260;6.714;2023-02-28T08:13:12;4.55;;;1.50;;
38312;SDS011;24114;52.260;6.714;2023-02-28T08:15:40;1.58;;;0.77;;
38312;SDS011;24114;52.260;6.714;2023-02-28T08:18:08;2.53;;;1.20;;
38312;SDS011;24114;52.260;6.714;2023-02-28T08:20:36;1.33;;;0.70;;
38312;SDS011;24114;52.260;6.714;2023-02-28T08:23:04;1.75;;;0.70;;
38312;SDS011;24114;52.260;6.714;2023-02-28T08:25:33;2.10;;;1.08;;
38312;SDS011;24114;52.260;6.714;2023-02-28T08:28:00;3.28;;;1.30;;
38312;SDS011;24114;52.260;6.714;2023-02-28T08:30:28;2.30;;;1.17;;
38312;SDS011;24114;52.260;6.714;2023-02-28T08:32:56;1.52;;;0.98;;
38312;SDS011;24114;52.260;6.714;2023-02-28T08:35:24;1.77;;;0.95;;
38312;SDS011;24114;52.260;6.714;2023-02-28T08:37:52;1.65;;;0.70;;
38312;SDS011;24114;52.260;6.714;2023-02-28T08:40:19;3.25;;;1.42;;
38312;SDS011;24114;52.260;6.714;2023-02-28T08:42:48;1.60;;;0.77;;
38312;SDS011;24114;52.260;6.714;2023-02-28T08:45:17;1.88;;;0.77;;
38312;SDS011;24114;52.260;6.714;2023-02-28T08:47:44;1.42;;;0.85;;
38312;SDS011;24114;52.260;6.714;2023-02-28T08:50:13;1.15;;;0.60;;
38312;SDS011;24114;52.260;6.714;2023-02-28T08:52:41;1.92;;;0.80;;
38312;SDS011;24114;52.260;6.714;2023-02-28T08:55:09;2.58;;;0.43;;
38312;SDS011;24114;52.260;6.714;2023-02-28T08:57:37;2.05;;;0.47;;
38312;SDS011;24114;52.260;6.714;2023-02-28T09:00:07;1.23;;;0.50;;
38312;SDS011;24114;52.260;6.714;2023-02-28T09:02:36;0.90;;;0.35;;
38312;SDS011;24114;52.260;6.714;2023-02-28T09:05:04;1.05;;;0.47;;
38312;SDS011;24114;52.260;6.714;2023-02-28T09:07:32;1.80;;;0.50;;
38312;SDS011;24114;52.260;6.714;2023-02-28T09:10:00;1.42;;;0.77;;
38312;SDS011;24114;52.260;6.714;2023-02-28T09:12:28;1.83;;;0.70;;
38312;SDS011;24114;52.260;6.714;2023-02-28T09:15:00;0.80;;;0.40;;
38312;SDS011;24114;52.260;6.714;2023-02-28T09:17:29;0.93;;;0.40;;
38312;SDS011;24114;52.260;6.714;2023-02-28T09:19:57;0.98;;;0.60;;
38312;SDS011;24114;52.260;6.714;2023-02-28T09:22:25;0.73;;;0.22;;
38312;SDS011;24114;52.260;6.714;2023-02-28T09:24:53;1.95;;;0.70;;
38312;SDS011;24114;52.260;6.714;2023-02-28T09:27:20;2.17;;;0.47;;
38312;SDS011;24114;52.260;6.714;2023-02-28T09:29:48;0.70;;;0.20;;
38312;SDS011;24114;52.260;6.714;2023-02-28T09:32:16;0.90;;;0.60;;
38312;SDS011;24114;52.260;6.714;2023-02-28T09:34:46;0.75;;;0.38;;
38312;SDS011;24114;52.260;6.714;2023-02-28T09:37:14;0.98;;;0.35;;
38312;SDS011;24114;52.260;6.714;2023-02-28T09:39:41;0.63;;;0.20;;
38312;SDS011;24114;52.260;6.714;2023-02-28T09:42:12;0.82;;;0.40;;
38312;SDS011;24114;52.260;6.714;2023-02-28T09:44:45;1.25;;;0.30;;
38312;SDS011;24114;52.260;6.714;2023-02-28T09:47:16;2.33;;;0.35;;
38312;SDS011;24114;52.260;6.714;2023-02-28T09:49:50;1.48;;;0.40;;
38312;SDS011;24114;52.260;6.714;2023-02-28T09:52:18;2.55;;;0.45;;
38312;SDS011;24114;52.260;6.714;2023-02-28T09:54:47;0.80;;;0.40;;
38312;SDS011;24114;52.260;6.714;2023-02-28T09:57:16;0.90;;;0.40;;
38312;SDS011;24114;52.260;6.714;2023-02-28T09:59:56;1.67;;;0.30;;
38312;SDS011;24114;52.260;6.714;2023-02-28T10:05:28;0.90;;;0.30;;
38312;SDS011;24114;52.260;6.714;2023-02-28T10:08:00;0.82;;;0.40;;
38312;SDS011;24114;52.260;6.714;2023-02-28T10:10:33;1.02;;;0.65;;
38312;SDS011;24114;52.260;6.714;2023-02-28T10:13:05;0.60;;;0.35;;
38312;SDS011;24114;52.260;6.714;2023-02-28T10:15:39;2.10;;;0.70;;
38312;SDS011;24114;52.260;6.714;2023-02-28T10:18:09;3.25;;;0.60;;
38312;SDS011;24114;52.260;6.714;2023-02-28T10:20:40;1.20;;;0.52;;
38312;SDS011;24114;52.260;6.714;2023-02-28T10:23:11;1.77;;;0.98;;
38312;SDS011;24114;52.260;6.714;2023-02-28T10:25:41;1.05;;;0.65;;
38312;SDS011;24114;52.260;6.714;2023-02-28T10:28:15;1.15;;;0.50;;
38312;SDS011;24114;52.260;6.714;2023-02-28T10:30:44;1.88;;;0.70;;
38312;SDS011;24114;52.260;6.714;2023-02-28T10:33:22;1.60;;;0.55;;
38312;SDS011;24114;52.260;6.714;2023-02-28T10:35:52;0.73;;;0.30;;
38312;SDS011;24114;52.260;6.714;2023-02-28T10:38:21;2.30;;;0.35;;
38312;SDS011;24114;52.260;6.714;2023-02-28T10:40:51;0.82;;;0.43;;
38312;SDS011;24114;52.260;6.714;2023-02-28T10:43:20;1.05;;;0.30;;
38312;SDS011;24114;52.260;6.714;2023-02-28T10:45:53;0.90;;;0.30;;
38312;SDS011;24114;52.260;6.714;2023-02-28T10:48:27;1.15;;;0.30;;
38312;SDS011;24114;52.260;6.714;2023-02-28T10:50:59;0.80;;;0.30;;
38312;SDS011;24114;52.260;6.714;2023-02-28T10:53:28;0.63;;;0.22;;
38312;SDS011;24114;52.260;6.714;2023-02-28T10:56:22;1.00;;;0.45;;
38312;SDS011;24114;52.260;6.714;2023-02-28T10:58:52;0.57;;;0.20;;
38312;SDS011;24114;52.260;6.714;2023-02-28T11:01:23;1.15;;;0.30;;
38312;SDS011;24114;52.260;6.714;2023-02-28T11:03:52;0.63;;;0.20;;
38312;SDS011;24114;52.260;6.714;2023-02-28T11:06:22;2.72;;;0.35;;
38312;SDS011;24114;52.260;6.714;2023-02-28T11:08:54;0.85;;;0.20;;
38312;SDS011;24114;52.260;6.714;2023-02-28T11:11:24;0.70;;;0.20;;
38312;SDS011;24114;52.260;6.714;2023-02-28T11:13:54;0.55;;;0.20;;
38312;SDS011;24114;52.260;6.714;2023-02-28T11:16:31;1.05;;;0.40;;
38312;SDS011;24114;52.260;6.714;2023-02-28T11:19:00;0.70;;;0.20;;
38312;SDS011;24114;52.260;6.714;2023-02-28T11:21:30;0.60;;;0.20;;
38312;SDS011;24114;52.260;6.714;2023-02-28T11:24:01;0.88;;;0.30;;
38312;SDS011;24114;52.260;6.714;2023-02-28T11:26:35;0.90;;;0.22;;
38312;SDS011;24114;52.260;6.714;2023-02-28T11:29:09;0.98;;;0.40;;
38312;SDS011;24114;52.260;6.714;2023-02-28T11:31:39;0.75;;;0.35;;
38312;SDS011;24114;52.260;6.714;2023-02-28T11:34:21;0.85;;;0.30;;
38312;SDS011;24114;52.260;6.714;2023-02-28T11:36:52;1.35;;;0.40;;
38312;SDS011;24114;52.260;6.714;2023-02-28T11:39:24;1.27;;;0.77;;
38312;SDS011;24114;52.260;6.714;2023-02-28T11:42:00;1.63;;;0.80;;
38312;SDS011;24114;52.260;6.714;2023-02-28T11:44:41;2.92;;;0.60;;
38312;SDS011;24114;52.260;6.714;2023-02-28T11:47:18;2.63;;;1.13;;
38312;SDS011;24114;52.260;6.714;2023-02-28T11:49:54;2.65;;;0.50;;
38312;SDS011;24114;52.260;6.714;2023-02-28T11:52:33;4.53;;;1.60;;
38312;SDS011;24114;52.260;6.714;2023-02-28T11:55:11;1.58;;;0.32;;
38312;SDS011;24114;52.260;6.714;2023-02-28T12:00:40;4.32;;;1.20;;
38312;SDS011;24114;52.260;6.714;2023-02-28T12:03:16;6.07;;;3.45;;
38312;SDS011;24114;52.260;6.714;2023-02-28T12:05:54;10.77;;;5.55;;
38312;SDS011;24114;52.260;6.714;2023-02-28T12:08:34;2.38;;;0.95;;
38312;SDS011;24114;52.260;6.714;2023-02-28T12:11:16;1.42;;;0.55;;
38312;SDS011;24114;52.260;6.714;2023-02-28T12:13:58;2.38;;;0.80;;
38312;SDS011;24114;52.260;6.714;2023-02-28T12:16:45;4.60;;;2.50;;
38312;SDS011;24114;52.260;6.714;2023-02-28T12:19:19;14.18;;;6.45;;
38312;SDS011;24114;52.260;6.714;2023-02-28T12:21:58;10.15;;;4.90;;
38312;SDS011;24114;52.260;6.714;2023-02-28T12:24:58;23.63;;;11.27;;
38312;SDS011;24114;52.260;6.714;2023-02-28T12:27:34;12.65;;;5.93;;
38312;SDS011;24114;52.260;6.714;2023-02-28T12:30:05;20.40;;;9.05;;
38312;SDS011;24114;52.260;6.714;2023-02-28T12:32:38;1.80;;;1.33;;
38312;SDS011;24114;52.260;6.714;2023-02-28T12:35:11;1.40;;;1.13;;
38312;SDS011;24114;52.260;6.714;2023-02-28T12:37:41;1.83;;;0.55;;
38312;SDS011;24114;52.260;6.714;2023-02-28T12:40:14;1.60;;;0.75;;
38312;SDS011;24114;52.260;6.714;2023-02-28T12:42:45;1.23;;;0.73;;
38312;SDS011;24114;52.260;6.714;2023-02-28T12:45:16;0.80;;;0.40;;
38312;SDS011;24114;52.260;6.714;2023-02-28T12:47:48;1.15;;;0.40;;
38312;SDS011;24114;52.260;6.714;2023-02-28T12:50:18;0.70;;;0.32;;
38312;SDS011;24114;52.260;6.714;2023-02-28T12:52:51;1.98;;;0.50;;
38312;SDS011;24114;52.260;6.714;2023-02-28T12:55:26;0.88;;;0.50;;
38312;SDS011;24114;52.260;6.714;2023-02-28T12:57:58;1.88;;;0.60;;
38312;SDS011;24114;52.260;6.714;2023-02-28T13:00:33;0.90;;;0.60;;
38312;SDS011;24114;52.260;6.714;2023-02-28T13:03:06;2.50;;;0.70;;
38312;SDS011;24114;52.260;6.714;2023-02-28T13:05:55;1.30;;;0.60;;
38312;SDS011;24114;52.260;6.714;2023-02-28T13:08:38;2.00;;;0.60;;
38312;SDS011;24114;52.260;6.714;2023-02-28T13:11:32;1.00;;;0.60;;
38312;SDS011;24114;52.260;6.714;2023-02-28T13:14:02;1.30;;;0.43;;
38312;SDS011;24114;52.260;6.714;2023-02-28T13:16:54;1.25;;;0.65;;
38312;SDS011;24114;52.260;6.714;2023-02-28T13:19:25;1.20;;;0.55;;
38312;SDS011;24114;52.260;6.714;2023-02-28T13:21:54;1.20;;;0.50;;
38312;SDS011;24114;52.260;6.714;2023-02-28T13:33:24;1.73;;;0.57;;
38312;SDS011;24114;52.260;6.714;2023-02-28T13:36:22;1.02;;;0.40;;
38312;SDS011;24114;52.260;6.714;2023-02-28T13:38:52;1.10;;;0.50;;
38312;SDS011;24114;52.260;6.714;2023-02-28T13:44:13;1.38;;;0.20;;
38312;SDS011;24114;52.260;6.714;2023-02-28T13:49:51;1.10;;;0.40;;
38312;SDS011;24114;52.260;6.714;2023-02-28T13:52:20;0.90;;;0.28;;
38312;SDS011;24114;52.260;6.714;2023-02-28T13:57:57;1.80;;;0.32;;
38312;SDS011;24114;52.260;6.714;2023-02-28T14:00:37;0.80;;;0.28;;
38312;SDS011;24114;52.260;6.714;2023-02-28T14:03:16;2.33;;;0.50;;
38312;SDS011;24114;52.260;6.714;2023-02-28T14:06:16;1.00;;;0.50;;
38312;SDS011;24114;52.260;6.714;2023-02-28T14:08:51;0.75;;;0.50;;
38312;SDS011;24114;52.260;6.714;2023-02-28T14:11:26;1.48;;;0.43;;
38312;SDS011;24114;52.260;6.714;2023-02-28T14:13:55;0.90;;;0.45;;
38312;SDS011;24114;52.260;6.714;2023-02-28T14:16:25;0.88;;;0.40;;
38312;SDS011;24114;52.260;6.714;2023-02-28T14:18:58;1.88;;;0.40;;
38312;SDS011;24114;52.260;6.714;2023-02-28T14:21:28;1.05;;;0.60;;
38312;SDS011;24114;52.260;6.714;2023-02-28T14:24:10;1.50;;;0.40;;
38312;SDS011;24114;52.260;6.714;2023-02-28T14:26:56;1.15;;;0.35;;
38312;SDS011;24114;52.260;6.714;2023-02-28T14:29:58;0.82;;;0.45;;
38312;SDS011;24114;52.260;6.714;2023-02-28T14:32:40;0.70;;;0.38;;
38312;SDS011;24114;52.260;6.714;2023-02-28T14:35:59;0.70;;;0.30;;
38312;SDS011;24114;52.260;6.714;2023-02-28T14:38:31;0.82;;;0.30;;
38312;SDS011;24114;52.260;6.714;2023-02-28T14:41:02;1.00;;;0.50;;
38312;SDS011;24114;52.260;6.714;2023-02-28T14:43:32;0.70;;;0.30;;
38312;SDS011;24114;52.260;6.714;2023-02-28T14:46:00;2.22;;;0.73;;
38312;SDS011;24114;52.260;6.714;2023-02-28T14:48:31;2.70;;;0.50;;
38312;SDS011;24114;52.260;6.714;2023-02-28T14:51:00;1.60;;;0.52;;
38312;SDS011;24114;52.260;6.714;2023-02-28T14:53:29;1.25;;;0.65;;
38312;SDS011;24114;52.260;6.714;2023-02-28T14:55:57;0.90;;;0.60;;
38312;SDS011;24114;52.260;6.714;2023-02-28T15:01:33;1.13;;;0.57;;
38312;SDS011;24114;52.260;6.714;2023-02-28T15:04:03;0.90;;;0.52;;
38312;SDS011;24114;52.260;6.714;2023-02-28T15:06:32;2.30;;;0.50;;
38312;SDS011;24114;52.260;6.714;2023-02-28T15:09:07;1.40;;;0.60;;
38312;SDS011;24114;52.260;6.714;2023-02-28T15:11:37;3.15;;;0.43;;
38312;SDS011;24114;52.260;6.714;2023-02-28T15:14:05;0.70;;;0.32;;
38312;SDS011;24114;52.260;6.714;2023-02-28T15:16:34;1.23;;;0.57;;
38312;SDS011;24114;52.260;6.714;2023-02-28T15:19:06;1.60;;;0.50;;
38312;SDS011;24114;52.260;6.714;2023-02-28T15:21:39;1.30;;;0.60;;
38312;SDS011;24114;52.260;6.714;2023-02-28T15:24:12;1.77;;;0.50;;
38312;SDS011;24114;52.260;6.714;2023-02-28T15:26:42;1.00;;;0.40;;
38312;SDS011;24114;52.260;6.714;2023-02-28T15:29:13;1.50;;;0.60;;
38312;SDS011;24114;52.260;6.714;2023-02-28T15:31:43;1.17;;;0.70;;
38312;SDS011;24114;52.260;6.714;2023-02-28T15:34:29;0.98;;;0.57;;
38312;SDS011;24114;52.260;6.714;2023-02-28T15:39:51;1.60;;;0.55;;
38312;SDS011;24114;52.260;6.714;2023-02-28T15:42:20;0.80;;;0.50;;
38312;SDS011;24114;52.260;6.714;2023-02-28T15:44:49;1.08;;;0.50;;
38312;SDS011;24114;52.260;6.714;2023-02-28T15:47:17;1.60;;;0.68;;
38312;SDS011;24114;52.260;6.714;2023-02-28T15:49:49;0.70;;;0.45;;
38312;SDS011;24114;52.260;6.714;2023-02-28T15:52:18;1.10;;;0.68;;
38312;SDS011;24114;52.260;6.714;2023-02-28T15:54:48;0.80;;;0.55;;
38312;SDS011;24114;52.260;6.714;2023-02-28T15:57:17;0.80;;;0.50;;
38312;SDS011;24114;52.260;6.714;2023-02-28T15:59:49;1.08;;;0.60;;